createdAt,value
2023-04-15T00:01:37.229Z,91.50
2023-04-15T00:04:04.737Z,90.79
2023-04-15T00:06:31.344Z,88.43
2023-04-15T00:08:57.904Z,89.76
2023-04-15T00:11:24.460Z,90.88
2023-04-15T00:13:51.173Z,89.62
2023-04-15T00:16:17.722Z,90.14
2023-04-15T00:18:44.267Z,90.31
2023-04-15T00:21:10.637Z,90.92
2023-04-15T00:23:36.988Z,90.03
2023-04-15T00:26:03.382Z,91.69
2023-04-15T00:28:30.957Z,92.71
2023-04-15T00:30:57.554Z,92.73
2023-04-15T00:33:23.995Z,94.73
2023-04-15T00:35:50.890Z,94.05
2023-04-15T00:38:17.726Z,95.32
2023-04-15T00:40:44.207Z,95.04
2023-04-15T00:43:10.609Z,94.04
2023-04-15T00:45:37.345Z,94.10
2023-04-15T00:48:05.380Z,95.77
2023-04-15T00:50:31.800Z,96.25
2023-04-15T00:52:58.158Z,97.19
2023-04-15T00:55:24.506Z,97.61
2023-04-15T00:57:51.049Z,96.08
2023-04-15T01:00:18.095Z,96.38
2023-04-15T01:02:44.750Z,95.42
2023-04-15T01:05:11.643Z,96.34
2023-04-15T01:07:38.148Z,97.05
2023-04-15T01:10:05.018Z,97.60
2023-04-15T01:12:33.058Z,97.62
2023-04-15T01:15:00.029Z,96.61
2023-04-15T01:17:26.432Z,97.49
2023-04-15T01:19:52.987Z,97.82
2023-04-15T01:22:19.654Z,97.46
2023-04-15T01:24:55.286Z,97.96
2023-04-15T01:27:22.525Z,97.67
2023-04-15T01:29:48.894Z,97.77
2023-04-15T01:32:15.573Z,97.42
2023-04-15T01:34:42.215Z,98.36
2023-04-15T01:37:08.569Z,97.23
2023-04-15T01:39:35.362Z,97.21
2023-04-15T01:42:01.702Z,99.65
2023-04-15T01:44:28.048Z,98.32
2023-04-15T01:46:54.459Z,98.08
2023-04-15T01:49:20.836Z,97.42
2023-04-15T01:51:47.208Z,97.48
2023-04-15T01:54:13.567Z,98.32
2023-04-15T01:56:39.956Z,98.94
2023-04-15T01:59:06.434Z,99.15
2023-04-15T02:01:32.882Z,98.69
2023-04-15T02:03:59.403Z,98.85
2023-04-15T02:06:25.833Z,100.00
2023-04-15T02:08:52.207Z,99.65
2023-04-15T02:11:18.533Z,98.24
2023-04-15T02:13:45.049Z,98.46
2023-04-15T02:16:18.957Z,99.05
2023-04-15T02:18:46.920Z,98.52
2023-04-15T02:21:13.633Z,98.24
2023-04-15T02:23:40.046Z,99.13
2023-04-15T02:26:07.101Z,98.62
2023-04-15T02:28:33.472Z,98.78
2023-04-15T02:30:59.843Z,99.23
2023-04-15T02:33:26.263Z,99.54
2023-04-15T02:35:53.190Z,99.79
2023-04-15T02:38:19.604Z,97.99
2023-04-15T02:40:46.574Z,96.74
2023-04-15T02:43:12.952Z,96.65
2023-04-15T02:45:39.370Z,97.44
2023-04-15T02:48:06.724Z,98.05
2023-04-15T02:50:33.391Z,98.28
2023-04-15T02:53:01.564Z,98.69
2023-04-15T02:55:28.742Z,97.29
2023-04-15T02:57:55.533Z,97.07
2023-04-15T03:00:22.375Z,96.66
2023-04-15T03:02:52.301Z,96.13
2023-04-15T03:05:18.933Z,95.70
2023-04-15T03:07:45.445Z,95.60
2023-04-15T03:10:11.893Z,96.82
2023-04-15T03:12:38.304Z,97.89
2023-04-15T03:15:05.100Z,98.43
2023-04-15T03:17:31.479Z,96.93
2023-04-15T03:19:57.908Z,95.59
2023-04-15T03:22:25.082Z,95.72
2023-04-15T03:24:51.502Z,95.68
2023-04-15T03:27:17.860Z,96.24
2023-04-15T03:29:44.208Z,96.62
2023-04-15T03:32:10.646Z,99.00
2023-04-15T03:34:37.020Z,97.56
2023-04-15T03:37:03.422Z,97.46
2023-04-15T03:39:29.765Z,98.59
2023-04-15T03:41:56.434Z,99.92
2023-04-15T03:44:22.782Z,99.07
2023-04-15T03:46:49.314Z,99.18
2023-04-15T03:49:16.234Z,99.04
2023-04-15T03:51:42.639Z,99.27
2023-04-15T03:54:08.969Z,98.99
2023-04-15T03:56:35.411Z,98.54
2023-04-15T03:59:02.068Z,98.86
2023-04-15T04:01:28.783Z,100.00
2023-04-15T04:03:55.279Z,100.00
2023-04-15T04:06:21.884Z,100.00
2023-04-15T04:08:48.250Z,100.00
2023-04-15T04:11:14.684Z,99.09
2023-04-15T04:13:41.436Z,99.20
2023-04-15T04:16:08.337Z,98.34
2023-04-15T04:18:34.846Z,98.44
2023-04-15T04:21:01.497Z,97.82
2023-04-15T04:23:28.023Z,96.81
2023-04-15T04:25:54.475Z,96.74
2023-04-15T04:28:20.830Z,97.42
2023-04-15T04:30:47.265Z,98.52
2023-04-15T04:33:13.660Z,99.06
2023-04-15T04:35:40.068Z,99.21
2023-04-15T04:38:06.403Z,99.08
2023-04-15T04:40:32.808Z,99.40
2023-04-15T04:42:59.257Z,99.96
2023-04-15T04:45:25.756Z,100.00
2023-04-15T04:47:52.215Z,100.00
2023-04-15T04:50:18.667Z,100.00
2023-04-15T04:52:45.021Z,100.00
2023-04-15T04:55:11.563Z,100.00
2023-04-15T04:57:39.475Z,100.00
2023-04-15T05:00:08.536Z,100.00
2023-04-15T05:02:35.997Z,100.00
2023-04-15T05:05:02.479Z,100.00
2023-04-15T05:07:28.885Z,100.00
2023-04-15T05:09:55.236Z,100.00
2023-04-15T05:12:21.652Z,100.00
2023-04-15T05:14:48.005Z,100.00
2023-04-15T05:17:14.481Z,100.00
2023-04-15T05:19:40.860Z,100.00
2023-04-15T05:22:07.824Z,100.00
2023-04-15T05:24:34.199Z,100.00
2023-04-15T05:27:02.051Z,100.00
2023-04-15T05:29:28.412Z,100.00
2023-04-15T05:31:54.808Z,100.00
2023-04-15T05:34:21.632Z,100.00
2023-04-15T05:36:48.024Z,100.00
2023-04-15T05:39:14.363Z,100.00
2023-04-15T05:41:40.967Z,100.00
2023-04-15T05:44:07.320Z,100.00
2023-04-15T05:46:33.700Z,100.00
2023-04-15T05:49:00.627Z,100.00
2023-04-15T05:51:27.756Z,100.00
2023-04-15T05:53:54.100Z,100.00
2023-04-15T05:56:20.684Z,100.00
2023-04-15T05:58:47.115Z,100.00
2023-04-15T06:01:13.517Z,100.00
2023-04-15T06:03:40.321Z,99.33
2023-04-15T06:06:07.641Z,99.52
2023-04-15T06:08:34.031Z,99.48
2023-04-15T06:11:00.460Z,98.06
2023-04-15T06:13:27.079Z,96.58
2023-04-15T06:15:54.051Z,95.70
2023-04-15T06:18:20.569Z,94.53
2023-04-15T06:20:46.949Z,93.03
2023-04-15T06:23:13.294Z,90.89
2023-04-15T06:25:39.654Z,89.74
2023-04-15T06:28:06.274Z,88.18
2023-04-15T06:30:32.754Z,85.94
2023-04-15T06:32:59.177Z,83.59
2023-04-15T06:35:25.956Z,79.80
2023-04-15T06:37:52.555Z,75.04
2023-04-15T06:40:18.898Z,72.85
2023-04-15T06:42:45.513Z,71.59
2023-04-15T06:45:11.978Z,72.80
2023-04-15T06:47:38.378Z,72.91
2023-04-15T06:50:05.143Z,72.94
2023-04-15T06:52:31.637Z,73.13
2023-04-15T06:54:59.414Z,72.63
2023-04-15T06:57:25.897Z,70.93
2023-04-15T06:59:54.543Z,71.40
2023-04-15T07:02:21.453Z,70.79
2023-04-15T07:04:47.854Z,71.29
2023-04-15T07:07:15.266Z,69.95
2023-04-15T07:09:41.709Z,70.47
2023-04-15T07:12:08.110Z,71.74
2023-04-15T07:14:34.454Z,72.85
2023-04-15T07:17:00.907Z,72.71
2023-04-15T07:19:27.273Z,68.86
2023-04-15T07:21:53.665Z,67.63
2023-04-15T07:24:20.592Z,65.30
2023-04-15T07:26:47.131Z,64.29
2023-04-15T07:29:13.492Z,61.87
2023-04-15T07:31:41.608Z,59.36
2023-04-15T07:34:08.409Z,58.29
2023-04-15T07:36:35.269Z,55.19
2023-04-15T07:39:03.656Z,56.61
2023-04-15T07:41:30.962Z,56.47
2023-04-15T07:43:57.378Z,55.84
2023-04-15T07:46:24.737Z,54.21
2023-04-15T07:48:51.125Z,55.85
2023-04-15T07:51:17.776Z,53.91
2023-04-15T07:53:44.539Z,54.46
2023-04-15T07:56:11.335Z,55.18
2023-04-15T07:58:37.678Z,55.96
2023-04-15T08:01:05.019Z,56.59
2023-04-15T08:03:32.068Z,55.67
2023-04-15T08:05:58.509Z,54.90
2023-04-15T08:08:25.711Z,56.09
2023-04-15T08:10:52.822Z,55.92
2023-04-15T08:13:19.511Z,56.53
2023-04-15T08:15:46.040Z,57.19
2023-04-15T08:18:12.525Z,57.27
2023-04-15T08:20:38.918Z,56.98
2023-04-15T08:23:05.297Z,56.12
2023-04-15T08:25:31.721Z,56.93
2023-04-15T08:27:58.192Z,57.65
2023-04-15T08:30:24.599Z,56.00
2023-04-15T08:32:51.256Z,54.27
2023-04-15T08:35:18.141Z,53.90
2023-04-15T08:37:44.515Z,55.79
2023-04-15T08:40:11.430Z,53.45
2023-04-15T08:42:44.929Z,55.33
2023-04-15T08:45:11.844Z,54.06
2023-04-15T08:47:41.736Z,54.82
2023-04-15T08:50:10.576Z,55.37
2023-04-15T08:52:37.077Z,54.26
2023-04-15T08:55:04.802Z,55.22
2023-04-15T08:57:33.408Z,52.83
2023-04-15T09:00:04.791Z,53.93
2023-04-15T09:02:32.192Z,51.93
2023-04-15T09:04:58.624Z,54.27
2023-04-15T09:07:25.038Z,52.76
2023-04-15T09:09:52.252Z,52.83
2023-04-15T09:12:18.661Z,52.54
2023-04-15T09:14:47.210Z,53.72
2023-04-15T09:17:13.913Z,50.35
2023-04-15T09:19:40.247Z,50.15
2023-04-15T09:22:06.804Z,48.57
2023-04-15T09:24:39.102Z,49.55
2023-04-15T09:27:06.263Z,51.01
2023-04-15T09:29:32.748Z,52.63
2023-04-15T09:32:13.462Z,54.54
2023-04-15T09:34:39.873Z,53.25
2023-04-15T09:37:07.807Z,53.68
2023-04-15T09:39:51.942Z,54.50
2023-04-15T09:42:24.352Z,55.20
2023-04-15T09:44:52.724Z,54.96
2023-04-15T09:47:29.571Z,53.30
2023-04-15T09:49:57.553Z,54.17
2023-04-15T09:52:24.370Z,53.68
2023-04-15T09:54:54.376Z,52.64
2023-04-15T09:57:21.781Z,52.60
2023-04-15T09:59:48.202Z,54.06
2023-04-15T10:02:15.758Z,51.92
2023-04-15T10:04:42.474Z,55.46
2023-04-15T10:07:09.702Z,52.35
2023-04-15T10:09:37.940Z,53.02
2023-04-15T10:12:05.226Z,52.65
2023-04-15T10:14:35.003Z,54.86
2023-04-15T10:17:02.864Z,52.63
2023-04-15T10:19:31.884Z,52.97
2023-04-15T10:21:59.518Z,52.51
2023-04-15T10:24:27.821Z,53.70
2023-04-15T10:26:55.366Z,53.66
2023-04-15T10:29:23.617Z,52.35
2023-04-15T10:31:50.963Z,54.30
2023-04-15T10:34:18.678Z,53.60
2023-04-15T10:36:46.982Z,53.42
2023-04-15T10:39:38.084Z,53.53
2023-04-15T10:42:19.048Z,53.76
2023-04-15T10:44:51.437Z,53.83
2023-04-15T10:47:21.319Z,55.05
2023-04-15T10:49:57.007Z,54.40
2023-04-15T10:52:26.044Z,51.65
2023-04-15T10:55:10.897Z,53.07
2023-04-15T10:57:41.496Z,54.37
2023-04-15T11:00:16.338Z,52.74
2023-04-15T11:02:55.651Z,52.94
2023-04-15T11:05:43.449Z,54.88
2023-04-15T11:08:13.581Z,52.51
2023-04-15T11:10:39.882Z,54.46
2023-04-15T11:13:17.032Z,51.31
2023-04-15T11:15:45.592Z,52.06
2023-04-15T11:18:20.163Z,50.55
2023-04-15T11:20:48.829Z,52.13
2023-04-15T11:23:16.045Z,50.79
2023-04-15T11:25:43.300Z,49.06
2023-04-15T11:28:11.929Z,50.57
2023-04-15T11:30:40.162Z,50.95
2023-04-15T11:33:12.178Z,50.03
2023-04-15T11:35:40.935Z,49.89
2023-04-15T11:38:13.649Z,50.95
2023-04-15T11:40:40.903Z,51.87
2023-04-15T11:43:11.406Z,50.73
2023-04-15T11:45:47.516Z,52.05
2023-04-15T11:48:14.600Z,50.94
2023-04-15T11:50:41.550Z,52.81
2023-04-15T11:53:10.406Z,52.95
2023-04-15T11:55:47.244Z,53.96
2023-04-15T11:58:22.424Z,54.04
2023-04-15T12:00:50.367Z,55.00
2023-04-15T12:03:24.104Z,56.03
2023-04-15T12:06:10.297Z,56.62
2023-04-15T12:08:55.520Z,55.81
2023-04-15T12:11:31.901Z,56.08
2023-04-15T12:14:09.633Z,57.96
2023-04-15T12:16:47.851Z,58.12
2023-04-15T12:19:18.146Z,58.44
2023-04-15T12:21:47.703Z,59.16
2023-04-15T12:24:14.495Z,60.10
2023-04-15T12:26:45.822Z,59.76
2023-04-15T12:29:13.786Z,60.32
2023-04-15T12:32:03.966Z,61.60
2023-04-15T12:34:39.012Z,61.92
2023-04-15T12:37:07.735Z,61.82
2023-04-15T12:39:42.399Z,62.41
2023-04-15T12:42:09.786Z,63.10
2023-04-15T12:44:36.993Z,62.86
2023-04-15T12:47:04.025Z,62.82
2023-04-15T12:49:32.523Z,63.73
2023-04-15T12:52:00.595Z,62.99
2023-04-15T12:54:27.933Z,62.84
2023-04-15T12:56:55.423Z,63.65
2023-04-15T12:59:23.734Z,62.81
2023-04-15T13:01:50.817Z,62.71
2023-04-15T13:04:17.762Z,62.55
2023-04-15T13:06:44.378Z,63.66
2023-04-15T13:09:10.776Z,63.54
2023-04-15T13:11:37.155Z,64.28
2023-04-15T13:14:08.452Z,66.52
2023-04-15T13:16:35.559Z,69.32
2023-04-15T13:19:03.594Z,69.70
2023-04-15T13:21:32.167Z,71.00
2023-04-15T13:23:58.579Z,71.73
2023-04-15T13:26:25.005Z,73.81
2023-04-15T13:28:51.371Z,73.95
2023-04-15T13:31:17.756Z,75.08
2023-04-15T13:33:44.150Z,76.18
2023-04-15T13:36:10.565Z,77.71
2023-04-15T13:38:36.967Z,77.93
2023-04-15T13:41:03.775Z,78.31
2023-04-15T13:43:30.515Z,80.24
2023-04-15T13:45:56.913Z,81.51
2023-04-15T13:48:23.273Z,81.92
2023-04-15T13:50:50.428Z,83.18
2023-04-15T13:53:16.777Z,83.56
2023-04-15T13:55:43.232Z,86.12
2023-04-15T13:58:09.975Z,84.94
2023-04-15T14:00:36.611Z,86.72
2023-04-15T14:03:03.471Z,86.60
2023-04-15T14:05:29.985Z,90.40
2023-04-15T14:07:56.318Z,91.49
2023-04-15T14:10:22.703Z,90.26
2023-04-15T14:12:49.087Z,92.09
2023-04-15T14:15:15.644Z,92.49
2023-04-15T14:17:42.494Z,93.20
2023-04-15T14:20:09.556Z,91.49
2023-04-15T14:22:36.041Z,92.07
2023-04-15T14:25:02.709Z,93.63
2023-04-15T14:27:29.158Z,92.08
2023-04-15T14:29:55.637Z,91.14
2023-04-15T14:32:22.011Z,91.81
2023-04-15T14:34:48.391Z,91.89
2023-04-15T14:37:14.780Z,92.44
2023-04-15T14:39:41.185Z,93.39
2023-04-15T14:42:07.617Z,95.28
2023-04-15T14:44:34.082Z,96.06
2023-04-15T14:47:00.746Z,96.41
2023-04-15T14:49:27.242Z,95.70
2023-04-15T14:51:53.613Z,96.24
2023-04-15T14:54:21.906Z,96.44
2023-04-15T14:56:48.765Z,97.94
2023-04-15T14:59:15.296Z,97.40
2023-04-15T15:01:41.742Z,96.85
2023-04-15T15:04:10.166Z,97.57
2023-04-15T15:06:36.618Z,97.79
2023-04-15T15:09:03.289Z,97.05
2023-04-15T15:11:30.328Z,96.51
2023-04-15T15:13:57.041Z,97.12
2023-04-15T15:16:23.527Z,96.45
2023-04-15T15:18:51.126Z,96.44
2023-04-15T15:21:18.209Z,96.91
2023-04-15T15:23:44.904Z,96.16
2023-04-15T15:26:12.337Z,95.22
2023-04-15T15:28:38.748Z,95.41
2023-04-15T15:31:05.529Z,95.08
2023-04-15T15:33:32.696Z,94.37
2023-04-15T15:35:59.390Z,94.70
2023-04-15T15:38:26.246Z,94.07
2023-04-15T15:40:53.674Z,94.93
2023-04-15T15:43:20.148Z,94.93
2023-04-15T15:45:46.511Z,94.48
2023-04-15T15:48:12.872Z,94.95
2023-04-15T15:50:39.383Z,94.57
2023-04-15T15:53:05.745Z,96.06
2023-04-15T15:55:32.161Z,94.86
2023-04-15T15:57:58.508Z,93.87
2023-04-15T16:00:24.906Z,95.70
2023-04-15T16:03:06.821Z,96.05
2023-04-15T16:05:35.063Z,95.17
2023-04-15T16:08:01.785Z,95.04
2023-04-15T16:10:28.215Z,96.63
2023-04-15T16:12:54.647Z,96.47
2023-04-15T16:15:22.441Z,96.93
2023-04-15T16:17:48.870Z,97.59
2023-04-15T16:20:15.357Z,98.73
2023-04-15T16:22:41.788Z,98.74
2023-04-15T16:25:08.557Z,98.29
2023-04-15T16:27:46.465Z,99.43
2023-04-15T16:30:22.098Z,99.62
2023-04-15T16:32:48.726Z,100.00
2023-04-15T16:35:16.747Z,100.00
2023-04-15T16:37:43.121Z,100.00
2023-04-15T16:40:10.024Z,100.00
2023-04-15T16:42:36.809Z,100.00
2023-04-15T16:45:03.312Z,100.00
2023-04-15T16:47:29.690Z,100.00
2023-04-15T16:49:56.187Z,100.00
2023-04-15T16:52:22.586Z,100.00
2023-04-15T16:54:48.942Z,100.00
2023-04-15T16:57:15.408Z,100.00
2023-04-15T16:59:41.755Z,100.00
2023-04-15T17:02:12.278Z,100.00
2023-04-15T17:04:39.746Z,100.00
2023-04-15T17:07:06.653Z,100.00
2023-04-15T17:09:33.015Z,100.00
2023-04-15T17:11:59.435Z,100.00
2023-04-15T17:14:27.825Z,100.00
2023-04-15T17:16:54.242Z,100.00
2023-04-15T17:19:20.644Z,100.00
2023-04-15T17:21:47.196Z,100.00
2023-04-15T17:24:13.588Z,100.00
2023-04-15T17:26:40.060Z,100.00
2023-04-15T17:29:06.685Z,100.00
2023-04-15T17:31:33.475Z,100.00
2023-04-15T17:34:07.701Z,100.00
2023-04-15T17:36:38.397Z,100.00
2023-04-15T17:39:05.062Z,100.00
2023-04-15T17:41:31.590Z,100.00
2023-04-15T17:43:57.952Z,100.00
2023-04-15T17:46:24.396Z,100.00
2023-04-15T17:48:50.764Z,100.00
2023-04-15T17:51:17.754Z,100.00
2023-04-15T17:53:44.106Z,100.00
2023-04-15T17:56:10.611Z,100.00
2023-04-15T17:58:38.997Z,100.00
2023-04-15T18:01:06.202Z,100.00
2023-04-15T18:03:32.689Z,100.00
2023-04-15T18:06:00.637Z,100.00
2023-04-15T18:08:27.925Z,100.00
2023-04-15T18:10:54.291Z,100.00
2023-04-15T18:13:20.656Z,100.00
2023-04-15T18:15:48.554Z,100.00
2023-04-15T18:18:15.123Z,100.00
2023-04-15T18:20:41.492Z,100.00
2023-04-15T18:23:07.923Z,100.00
2023-04-15T18:25:34.316Z,100.00
2023-04-15T18:28:00.706Z,100.00
2023-04-15T18:30:27.038Z,100.00
2023-04-15T18:32:53.425Z,100.00
2023-04-15T18:35:20.597Z,100.00
2023-04-15T18:37:47.129Z,100.00
2023-04-15T18:40:15.745Z,100.00
2023-04-15T18:42:42.108Z,100.00
2023-04-15T18:45:08.833Z,100.00
2023-04-15T18:47:35.310Z,100.00
2023-04-15T18:50:01.711Z,100.00
2023-04-15T18:52:28.130Z,100.00
2023-04-15T18:54:54.483Z,100.00
2023-04-15T18:57:24.984Z,100.00
2023-04-15T18:59:58.804Z,100.00
2023-04-15T19:02:25.367Z,100.00
2023-04-15T19:04:51.790Z,100.00
2023-04-15T19:07:18.426Z,100.00
2023-04-15T19:09:44.847Z,100.00
2023-04-15T19:12:11.278Z,100.00
2023-04-15T19:14:37.691Z,100.00
2023-04-15T19:17:04.095Z,100.00
2023-04-15T19:19:30.474Z,100.00
2023-04-15T19:21:57.511Z,100.00
2023-04-15T19:24:23.912Z,100.00
2023-04-15T19:26:51.057Z,100.00
2023-04-15T19:29:17.652Z,100.00
2023-04-15T19:31:44.061Z,100.00
2023-04-15T19:34:10.691Z,100.00
2023-04-15T19:36:37.051Z,100.00
2023-04-15T19:39:03.675Z,100.00
2023-04-15T19:41:30.177Z,100.00
2023-04-15T19:43:56.672Z,100.00
2023-04-15T19:46:23.392Z,100.00
2023-04-15T19:48:49.895Z,100.00
2023-04-15T19:51:16.311Z,100.00
2023-04-15T19:53:42.713Z,100.00
2023-04-15T19:56:09.064Z,100.00
2023-04-15T19:58:35.424Z,100.00
2023-04-15T20:01:02.267Z,100.00
2023-04-15T20:03:28.848Z,100.00
2023-04-15T20:05:55.331Z,100.00
2023-04-15T20:08:21.767Z,100.00
2023-04-15T20:10:48.122Z,100.00
2023-04-15T20:13:14.503Z,100.00
2023-04-15T20:15:41.089Z,100.00
2023-04-15T20:18:07.481Z,100.00
2023-04-15T20:20:34.569Z,100.00
2023-04-15T20:23:00.949Z,100.00
2023-04-15T20:25:27.508Z,100.00
2023-04-15T20:27:53.891Z,100.00
2023-04-15T20:30:20.618Z,100.00
2023-04-15T20:32:47.010Z,100.00
2023-04-15T20:35:13.420Z,100.00
2023-04-15T20:37:40.438Z,100.00
2023-04-15T20:40:07.457Z,100.00
2023-04-15T20:42:36.709Z,100.00
2023-04-15T20:45:03.329Z,100.00
2023-04-15T20:47:29.997Z,100.00
2023-04-15T20:49:56.630Z,100.00
2023-04-15T20:52:23.069Z,100.00
2023-04-15T20:54:49.988Z,100.00
2023-04-15T20:57:16.796Z,100.00
2023-04-15T20:59:43.182Z,100.00
2023-04-15T21:02:09.709Z,100.00
2023-04-15T21:04:37.885Z,100.00
2023-04-15T21:07:04.287Z,100.00
2023-04-15T21:09:30.776Z,100.00
2023-04-15T21:12:01.564Z,100.00
2023-04-15T21:14:28.571Z,100.00
2023-04-15T21:16:56.381Z,100.00
2023-04-15T21:19:22.751Z,100.00
2023-04-15T21:21:49.101Z,100.00
2023-04-15T21:24:15.468Z,100.00
2023-04-15T21:26:41.825Z,100.00
2023-04-15T21:29:11.108Z,100.00
2023-04-15T21:31:38.192Z,100.00
2023-04-15T21:34:05.154Z,100.00
2023-04-15T21:36:31.813Z,100.00
2023-04-15T21:38:58.182Z,100.00
2023-04-15T21:41:24.653Z,100.00
2023-04-15T21:43:51.107Z,100.00
2023-04-15T21:46:22.060Z,100.00
2023-04-15T21:48:50.472Z,100.00
2023-04-15T21:51:16.844Z,100.00
2023-04-15T21:53:43.259Z,100.00
2023-04-15T21:56:09.899Z,100.00
2023-04-15T21:58:36.601Z,100.00
2023-04-15T22:01:04.377Z,100.00
2023-04-15T22:03:33.728Z,100.00
2023-04-15T22:06:01.287Z,100.00
2023-04-15T22:08:27.740Z,100.00
2023-04-15T22:10:54.568Z,100.00
2023-04-15T22:13:20.988Z,100.00
2023-04-15T22:15:47.455Z,100.00
2023-04-15T22:18:13.807Z,100.00
2023-04-15T22:20:40.416Z,100.00
2023-04-15T22:23:09.814Z,100.00
2023-04-15T22:25:37.167Z,100.00
2023-04-15T22:28:07.216Z,100.00
2023-04-15T22:30:37.453Z,100.00
2023-04-15T22:33:03.940Z,100.00
2023-04-15T22:35:30.320Z,100.00
2023-04-15T22:37:56.696Z,100.00
2023-04-15T22:40:23.105Z,100.00
2023-04-15T22:42:49.464Z,100.00
2023-04-15T22:45:15.927Z,100.00
2023-04-15T22:47:42.319Z,100.00
2023-04-15T22:50:08.978Z,100.00
2023-04-15T22:52:35.365Z,100.00
2023-04-15T22:55:01.782Z,100.00
2023-04-15T22:57:28.603Z,100.00
2023-04-15T22:59:55.242Z,100.00
2023-04-15T23:02:21.849Z,100.00
2023-04-15T23:04:48.484Z,100.00
2023-04-15T23:07:14.893Z,100.00
2023-04-15T23:09:41.286Z,100.00
2023-04-15T23:12:07.698Z,100.00
2023-04-15T23:14:34.095Z,100.00
2023-04-15T23:17:00.441Z,100.00
2023-04-15T23:19:26.793Z,100.00
2023-04-15T23:21:53.416Z,100.00
2023-04-15T23:24:19.769Z,100.00
2023-04-15T23:26:46.191Z,100.00
2023-04-15T23:29:12.573Z,100.00
2023-04-15T23:31:39.029Z,100.00
2023-04-15T23:34:06.379Z,100.00
2023-04-15T23:36:32.756Z,100.00
2023-04-15T23:38:59.089Z,100.00
2023-04-15T23:41:25.437Z,100.00
2023-04-15T23:43:51.783Z,100.00
2023-04-15T23:46:18.182Z,100.00
2023-04-15T23:48:44.569Z,100.00
2023-04-15T23:51:11.007Z,100.00
2023-04-15T23:53:37.389Z,100.00
2023-04-15T23:56:04.020Z,100.00
2023-04-15T23:58:31.021Z,100.00
